createdAt,value
2019-06-08T00:00:28.440Z,14.86
2019-06-08T00:03:16.962Z,14.83
2019-06-08T00:06:05.410Z,14.84
2019-06-08T00:08:54.125Z,14.77
2019-06-08T00:11:42.757Z,14.80
2019-06-08T00:14:31.014Z,14.81
2019-06-08T00:17:34.339Z,14.77
2019-06-08T00:20:10.112Z,14.73
2019-06-08T00:22:58.017Z,15.02
2019-06-08T00:25:46.568Z,15.01
2019-06-08T00:28:35.097Z,14.97
2019-06-08T00:31:24.090Z,14.96
2019-06-08T00:34:12.426Z,14.97
2019-06-08T00:37:00.824Z,14.99
2019-06-08T00:39:49.455Z,14.90
2019-06-08T00:42:38.006Z,14.97
2019-06-08T00:45:26.674Z,14.96
2019-06-08T00:48:16.640Z,14.88
2019-06-08T00:51:05.138Z,14.75
2019-06-08T00:53:53.021Z,14.68
2019-06-08T00:56:41.622Z,14.63
2019-06-08T00:59:30.422Z,14.67
2019-06-08T01:02:18.810Z,14.54
2019-06-08T01:05:07.688Z,14.46
2019-06-08T01:07:55.669Z,14.41
2019-06-08T01:10:44.506Z,14.36
2019-06-08T01:13:32.368Z,14.29
2019-06-08T01:16:20.998Z,14.20
2019-06-08T01:19:09.434Z,14.18
2019-06-08T01:21:58.125Z,14.14
2019-06-08T01:24:46.569Z,13.98
2019-06-08T01:27:34.517Z,13.97
2019-06-08T01:30:24.250Z,13.99
2019-06-08T01:33:12.690Z,14.04
2019-06-08T01:36:01.097Z,13.98
2019-06-08T01:38:49.592Z,13.89
2019-06-08T01:41:38.038Z,13.96
2019-06-08T01:44:27.946Z,14.16
2019-06-08T01:47:16.559Z,14.00
2019-06-08T01:50:05.944Z,13.94
2019-06-08T01:52:54.448Z,13.77
2019-06-08T01:55:42.813Z,13.79
2019-06-08T01:58:31.515Z,13.62
2019-06-08T02:01:19.733Z,13.48
2019-06-08T02:04:07.934Z,13.59
2019-06-08T02:06:56.359Z,13.44
2019-06-08T02:09:44.519Z,13.38
2019-06-08T02:12:33.132Z,13.35
2019-06-08T02:15:23.093Z,13.40
2019-06-08T02:18:11.146Z,13.41
2019-06-08T02:20:59.220Z,13.47
2019-06-08T02:23:47.339Z,13.48
2019-06-08T02:26:36.402Z,13.47
2019-06-08T02:29:24.772Z,13.48
2019-06-08T02:32:13.437Z,13.54
2019-06-08T02:35:01.823Z,13.47
2019-06-08T02:37:50.413Z,13.32
2019-06-08T02:40:40.208Z,13.28
2019-06-08T02:43:29.059Z,13.16
2019-06-08T02:46:18.047Z,13.19
2019-06-08T02:49:06.683Z,13.19
2019-06-08T02:51:56.116Z,13.20
2019-06-08T02:54:44.759Z,13.22
2019-06-08T02:57:35.526Z,12.88
2019-06-08T03:00:24.342Z,13.00
2019-06-08T03:03:14.188Z,12.90
2019-06-08T03:06:03.339Z,12.82
2019-06-08T03:08:51.750Z,12.87
2019-06-08T03:11:41.496Z,12.99
2019-06-08T03:14:31.250Z,13.12
2019-06-08T03:17:21.323Z,13.26
2019-06-08T03:20:09.863Z,13.38
2019-06-08T03:22:58.570Z,13.36
2019-06-08T03:25:52.892Z,13.34
2019-06-08T03:28:37.746Z,13.09
2019-06-08T03:31:26.937Z,13.37
2019-06-08T03:34:15.619Z,13.42
2019-06-08T03:37:04.534Z,13.48
2019-06-08T03:39:53.103Z,13.67
2019-06-08T03:42:41.394Z,13.63
2019-06-08T03:45:30.078Z,13.93
2019-06-08T03:48:18.059Z,14.34
2019-06-08T03:51:06.552Z,14.54
2019-06-08T03:53:54.825Z,14.64
2019-06-08T03:56:44.166Z,14.77
2019-06-08T03:59:32.257Z,14.93
2019-06-08T04:02:20.429Z,15.03
2019-06-08T04:04:50.260Z,15.25
2019-06-08T04:07:20.083Z,15.49
2019-06-08T04:09:49.981Z,15.92
2019-06-08T04:12:19.979Z,16.24
2019-06-08T04:14:50.500Z,16.37
2019-06-08T04:17:20.477Z,16.54
2019-06-08T04:20:09.454Z,16.56
2019-06-08T04:22:21.856Z,16.25
2019-06-08T04:24:51.771Z,16.16
2019-06-08T04:27:21.656Z,16.16
2019-06-08T04:29:51.496Z,16.20
2019-06-08T04:32:21.388Z,16.36
2019-06-08T04:34:51.230Z,16.55
2019-06-08T04:37:21.085Z,16.74
2019-06-08T04:39:51.031Z,17.04
2019-06-08T04:42:20.902Z,17.77
2019-06-08T04:44:50.852Z,17.77
2019-06-08T04:47:20.683Z,18.06
2019-06-08T04:49:50.539Z,18.32
2019-06-08T04:52:20.452Z,18.55
2019-06-08T04:54:50.766Z,18.74
2019-06-08T04:57:20.642Z,19.12
2019-06-08T04:59:50.584Z,19.61
2019-06-08T05:02:20.493Z,19.72
2019-06-08T05:04:50.389Z,19.63
2019-06-08T05:07:20.209Z,19.46
2019-06-08T05:09:50.073Z,19.37
2019-06-08T05:12:19.956Z,19.24
2019-06-08T05:14:49.797Z,19.32
2019-06-08T05:17:19.673Z,19.40
2019-06-08T05:19:50.551Z,19.42
2019-06-08T05:22:20.660Z,19.50
2019-06-08T05:24:50.576Z,19.68
2019-06-08T05:27:20.492Z,19.78
2019-06-08T05:29:50.369Z,19.85
2019-06-08T05:32:20.207Z,19.94
2019-06-08T05:34:50.126Z,20.08
2019-06-08T05:37:19.973Z,20.27
2019-06-08T05:39:50.017Z,20.46
2019-06-08T05:42:19.972Z,20.69
2019-06-08T05:44:50.333Z,20.87
2019-06-08T05:47:20.418Z,21.00
2019-06-08T05:49:50.209Z,21.19
2019-06-08T05:52:20.129Z,21.34
2019-06-08T05:54:50.233Z,21.54
2019-06-08T05:57:20.178Z,21.82
2019-06-08T05:59:50.454Z,21.97
2019-06-08T06:02:20.502Z,22.10
2019-06-08T06:04:52.149Z,22.19
2019-06-08T06:07:21.883Z,22.53
2019-06-08T06:09:51.713Z,22.77
2019-06-08T06:12:21.599Z,23.31
2019-06-08T06:14:51.458Z,23.86
2019-06-08T06:17:21.311Z,25.30
2019-06-08T06:19:51.551Z,27.24
2019-06-08T06:22:21.520Z,29.34
2019-06-08T06:24:51.867Z,31.22
2019-06-08T06:27:21.920Z,31.61
2019-06-08T06:29:52.085Z,31.11
2019-06-08T06:32:21.974Z,30.18
2019-06-08T06:34:52.278Z,29.08
2019-06-08T06:37:22.219Z,28.11
2019-06-08T06:39:52.391Z,27.60
2019-06-08T06:42:24.765Z,27.39
2019-06-08T06:44:53.959Z,27.57
2019-06-08T06:47:23.824Z,28.08
2019-06-08T06:49:53.675Z,28.16
2019-06-08T06:52:23.594Z,28.12
2019-06-08T06:54:53.588Z,28.07
2019-06-08T06:57:23.436Z,27.96
2019-06-08T06:59:54.161Z,27.60
2019-06-08T07:02:24.349Z,27.54
2019-06-08T07:04:54.383Z,27.25
2019-06-08T07:07:24.380Z,27.44
2019-06-08T07:09:54.974Z,27.26
2019-06-08T07:12:25.033Z,27.27
2019-06-08T07:14:55.479Z,27.38
2019-06-08T07:17:25.505Z,27.26
2019-06-08T07:19:55.380Z,27.34
2019-06-08T07:22:25.219Z,27.51
2019-06-08T07:24:55.051Z,27.19
2019-06-08T07:27:24.958Z,27.55
2019-06-08T07:29:54.912Z,27.36
2019-06-08T07:32:25.072Z,27.41
2019-06-08T07:34:55.343Z,27.64
2019-06-08T07:37:25.333Z,27.72
2019-06-08T07:39:56.173Z,27.53
2019-06-08T07:42:26.264Z,27.53
2019-06-08T07:44:56.105Z,27.11
2019-06-08T07:47:25.965Z,27.05
2019-06-08T07:49:55.838Z,27.17
2019-06-08T07:52:25.692Z,27.28
2019-06-08T07:54:56.659Z,27.01
2019-06-08T07:57:26.631Z,27.39
2019-06-08T07:59:56.614Z,27.35
2019-06-08T08:02:26.490Z,27.26
2019-06-08T08:04:56.743Z,27.58
2019-06-08T08:07:26.817Z,27.62
2019-06-08T08:09:57.136Z,27.62
2019-06-08T08:12:27.115Z,27.64
2019-06-08T08:14:58.076Z,27.69
2019-06-08T08:17:28.492Z,27.78
2019-06-08T08:19:59.408Z,27.68
2019-06-08T08:22:29.715Z,27.67
2019-06-08T08:25:04.131Z,27.56
2019-06-08T08:27:31.373Z,27.70
2019-06-08T08:30:02.121Z,27.72
2019-06-08T08:32:32.240Z,27.66
2019-06-08T08:35:02.977Z,27.73
2019-06-08T08:37:33.080Z,27.51
2019-06-08T08:40:02.927Z,27.62
2019-06-08T08:42:32.864Z,27.70
2019-06-08T08:45:05.475Z,27.83
2019-06-08T08:47:34.288Z,27.91
2019-06-08T08:50:07.291Z,27.85
2019-06-08T08:52:40.381Z,27.92
2019-06-08T08:55:08.485Z,28.00
2019-06-08T08:57:41.443Z,27.95
2019-06-08T09:00:10.489Z,27.79
2019-06-08T09:02:40.383Z,27.85
2019-06-08T09:05:10.371Z,27.88
2019-06-08T09:07:40.199Z,28.00
2019-06-08T09:10:11.222Z,27.89
2019-06-08T09:12:41.726Z,28.13
2019-06-08T09:15:11.862Z,28.26
2019-06-08T09:17:41.700Z,28.03
2019-06-08T09:20:15.382Z,28.14
2019-06-08T09:22:56.226Z,28.07
2019-06-08T09:25:15.034Z,28.21
2019-06-08T09:27:47.925Z,28.22
2019-06-08T09:30:18.359Z,28.36
2019-06-08T09:32:48.437Z,28.30
2019-06-08T09:35:21.190Z,28.19
2019-06-08T09:37:49.922Z,28.16
2019-06-08T09:40:19.844Z,28.38
2019-06-08T09:42:51.417Z,28.49
2019-06-08T09:45:21.282Z,28.15
2019-06-08T09:47:51.144Z,28.72
2019-06-08T09:50:21.013Z,28.56
2019-06-08T09:53:06.585Z,28.65
2019-06-08T09:55:22.487Z,28.56
2019-06-08T09:57:54.567Z,28.54
2019-06-08T10:00:26.401Z,28.64
2019-06-08T10:02:59.347Z,28.98
2019-06-08T10:05:27.595Z,29.30
2019-06-08T10:08:00.504Z,29.27
2019-06-08T10:10:29.273Z,29.61
2019-06-08T10:13:01.771Z,29.49
2019-06-08T10:15:30.670Z,29.04
2019-06-08T10:18:01.010Z,28.67
2019-06-08T10:20:31.104Z,28.42
2019-06-08T10:23:04.789Z,28.45
2019-06-08T10:25:32.597Z,28.52
2019-06-08T10:28:09.816Z,28.70
2019-06-08T10:30:34.021Z,28.63
2019-06-08T10:33:05.841Z,28.38
2019-06-08T10:35:38.091Z,28.01
2019-06-08T10:38:11.685Z,27.80
2019-06-08T10:40:40.237Z,27.91
2019-06-08T10:43:11.490Z,27.75
2019-06-08T10:45:41.562Z,28.12
2019-06-08T10:48:11.480Z,28.45
2019-06-08T10:50:41.296Z,28.55
2019-06-08T10:53:12.541Z,28.39
2019-06-08T10:55:42.772Z,28.09
2019-06-08T10:58:12.679Z,27.92
2019-06-08T11:00:42.526Z,27.77
2019-06-08T11:03:12.415Z,27.66
2019-06-08T11:05:42.349Z,27.38
2019-06-08T11:08:14.616Z,27.20
2019-06-08T11:10:43.760Z,27.20
2019-06-08T11:13:15.132Z,27.34
2019-06-08T11:15:47.990Z,27.54
2019-06-08T11:18:18.539Z,27.52
2019-06-08T11:20:48.464Z,27.31
2019-06-08T11:23:18.870Z,27.13
2019-06-08T11:25:48.957Z,26.95
2019-06-08T11:28:19.001Z,26.94
2019-06-08T11:30:48.849Z,26.95
2019-06-08T11:33:18.709Z,27.05
2019-06-08T11:35:48.619Z,27.03
2019-06-08T11:38:20.286Z,27.15
2019-06-08T11:40:49.971Z,27.31
2019-06-08T11:43:19.904Z,27.07
2019-06-08T11:45:49.817Z,27.07
2019-06-08T11:48:19.715Z,26.61
2019-06-08T11:50:49.561Z,26.43
2019-06-08T11:53:19.468Z,26.24
2019-06-08T11:55:51.167Z,26.27
2019-06-08T11:58:23.138Z,26.23
2019-06-08T12:01:01.470Z,26.23
2019-06-08T12:03:30.688Z,26.35
2019-06-08T12:06:02.008Z,26.53
2019-06-08T12:08:32.190Z,26.85
2019-06-08T12:11:03.787Z,26.79
2019-06-08T12:13:33.586Z,26.81
2019-06-08T12:16:03.508Z,26.72
2019-06-08T12:18:33.372Z,26.83
2019-06-08T12:21:03.760Z,26.63
2019-06-08T12:23:33.769Z,26.52
2019-06-08T12:26:04.070Z,26.51
2019-06-08T12:28:34.072Z,26.75
2019-06-08T12:31:04.730Z,26.85
2019-06-08T12:33:34.834Z,26.72
2019-06-08T12:36:07.998Z,26.65
2019-06-08T12:38:38.045Z,26.32
2019-06-08T12:41:10.770Z,25.93
2019-06-08T12:43:39.651Z,25.69
2019-06-08T12:46:11.037Z,25.51
2019-06-08T12:48:41.125Z,25.30
2019-06-08T12:51:13.087Z,25.21
2019-06-08T12:53:42.565Z,25.02
2019-06-08T12:56:13.524Z,25.43
2019-06-08T12:58:44.091Z,25.34
2019-06-08T13:01:14.572Z,25.16
2019-06-08T13:03:44.622Z,24.92
2019-06-08T13:06:16.155Z,24.93
2019-06-08T13:08:47.806Z,25.06
2019-06-08T13:11:18.883Z,25.14
2019-06-08T13:13:49.330Z,25.12
2019-06-08T13:16:23.839Z,25.34
2019-06-08T13:18:50.783Z,25.14
2019-06-08T13:21:32.066Z,24.89
2019-06-08T13:23:52.231Z,24.81
2019-06-08T13:26:27.920Z,24.91
2019-06-08T13:28:53.868Z,25.02
2019-06-08T13:31:24.730Z,25.11
2019-06-08T13:33:54.756Z,25.14
2019-06-08T13:36:27.041Z,25.12
2019-06-08T13:38:56.256Z,25.22
2019-06-08T13:41:29.116Z,25.33
2019-06-08T13:43:58.264Z,25.46
2019-06-08T13:46:28.354Z,25.59
2019-06-08T13:48:58.697Z,25.60
2019-06-08T13:51:29.104Z,25.50
2019-06-08T13:53:58.951Z,25.25
2019-06-08T13:56:28.892Z,25.18
2019-06-08T13:58:58.745Z,25.10
2019-06-08T14:01:30.822Z,25.09
2019-06-08T14:04:00.203Z,25.06
2019-06-08T14:06:30.036Z,24.95
2019-06-08T14:09:00.123Z,25.11
2019-06-08T14:11:29.992Z,24.99
2019-06-08T14:14:01.241Z,25.13
2019-06-08T14:16:31.437Z,24.94
2019-06-08T14:19:01.345Z,25.08
2019-06-08T14:21:38.817Z,25.01
2019-06-08T14:24:02.780Z,25.09
2019-06-08T14:26:32.666Z,25.12
2019-06-08T14:29:02.500Z,25.14
2019-06-08T14:31:32.350Z,25.13
2019-06-08T14:34:02.241Z,25.21
2019-06-08T14:36:32.064Z,25.23
2019-06-08T14:39:02.614Z,25.09
2019-06-08T14:41:32.624Z,25.01
2019-06-08T14:44:02.501Z,24.78
2019-06-08T14:46:32.305Z,24.71
2019-06-08T14:49:02.238Z,24.64
2019-06-08T14:51:51.832Z,24.85
2019-06-08T14:54:26.323Z,24.81
2019-06-08T14:56:53.332Z,24.70
2019-06-08T14:59:23.880Z,24.60
2019-06-08T15:01:54.281Z,24.58
2019-06-08T15:04:28.450Z,24.68
2019-06-08T15:06:58.431Z,24.86
2019-06-08T15:09:27.615Z,24.80
2019-06-08T15:11:58.221Z,24.75
2019-06-08T15:14:33.187Z,24.71
2019-06-08T15:16:59.896Z,24.85
2019-06-08T15:19:32.352Z,24.86
2019-06-08T15:22:01.368Z,24.84
2019-06-08T15:24:32.873Z,24.88
2019-06-08T15:27:02.923Z,24.76
2019-06-08T15:29:33.017Z,24.68
2019-06-08T15:32:02.909Z,24.59
2019-06-08T15:34:33.263Z,24.16
2019-06-08T15:37:03.189Z,24.08
2019-06-08T15:39:34.132Z,24.27
2019-06-08T15:42:04.257Z,24.08
2019-06-08T15:44:34.095Z,23.86
2019-06-08T15:47:03.983Z,24.02
2019-06-08T15:49:34.046Z,23.81
2019-06-08T15:52:03.966Z,23.73
2019-06-08T15:54:37.532Z,23.62
2019-06-08T15:57:05.403Z,23.58
2019-06-08T15:59:38.966Z,23.62
2019-06-08T16:02:06.910Z,23.63
2019-06-08T16:04:36.728Z,23.66
2019-06-08T16:07:06.729Z,23.60
2019-06-08T16:09:36.695Z,23.37
2019-06-08T16:12:06.534Z,23.25
2019-06-08T16:14:36.367Z,23.23
2019-06-08T16:17:06.237Z,23.28
2019-06-08T16:19:36.127Z,23.39
2019-06-08T16:22:05.951Z,23.36
2019-06-08T16:24:36.347Z,23.44
2019-06-08T16:27:06.267Z,23.41
2019-06-08T16:29:36.140Z,23.31
2019-06-08T16:32:06.098Z,23.43
2019-06-08T16:34:35.932Z,23.03
2019-06-08T16:37:05.893Z,23.12
2019-06-08T16:39:35.809Z,23.05
2019-06-08T16:42:05.710Z,22.95
2019-06-08T16:44:36.386Z,22.93
2019-06-08T16:47:06.484Z,22.84
2019-06-08T16:49:36.341Z,22.75
2019-06-08T16:52:06.213Z,22.63
2019-06-08T16:54:37.223Z,22.17
2019-06-08T16:57:10.603Z,22.51
2019-06-08T16:59:39.114Z,22.36
2019-06-08T17:02:09.859Z,22.31
2019-06-08T17:04:39.798Z,22.22
2019-06-08T17:07:09.640Z,22.21
2019-06-08T17:09:40.085Z,22.09
2019-06-08T17:12:11.594Z,21.97
2019-06-08T17:14:41.681Z,22.04
2019-06-08T17:17:11.511Z,22.07
2019-06-08T17:19:41.845Z,21.99
2019-06-08T17:22:11.718Z,21.90
2019-06-08T17:24:41.612Z,21.86
2019-06-08T17:27:25.742Z,21.95
2019-06-08T17:29:43.134Z,21.86
2019-06-08T17:32:12.988Z,21.52
2019-06-08T17:34:42.852Z,21.77
2019-06-08T17:37:12.690Z,21.77
2019-06-08T17:39:42.812Z,21.76
2019-06-08T17:42:12.659Z,21.78
2019-06-08T17:44:42.715Z,21.73
2019-06-08T17:47:12.619Z,21.75
2019-06-08T17:49:43.425Z,21.88
2019-06-08T17:52:13.325Z,21.77
2019-06-08T17:54:43.376Z,21.65
2019-06-08T17:57:13.377Z,21.58
2019-06-08T17:59:43.234Z,21.53
2019-06-08T18:02:18.891Z,21.52
2019-06-08T18:04:44.708Z,21.49
2019-06-08T18:07:16.998Z,21.44
2019-06-08T18:09:48.331Z,21.40
2019-06-08T18:12:18.672Z,21.38
2019-06-08T18:14:48.805Z,21.33
2019-06-08T18:17:18.683Z,21.31
2019-06-08T18:19:49.729Z,21.31
2019-06-08T18:22:19.906Z,21.26
2019-06-08T18:24:49.761Z,21.23
2019-06-08T18:27:19.675Z,21.20
2019-06-08T18:29:49.588Z,21.15
2019-06-08T18:32:19.482Z,21.13
2019-06-08T18:34:49.342Z,21.09
2019-06-08T18:37:19.205Z,21.06
2019-06-08T18:39:49.741Z,21.01
2019-06-08T18:42:20.646Z,20.98
2019-06-08T18:44:50.477Z,20.96
2019-06-08T18:47:20.319Z,20.89
2019-06-08T18:49:50.195Z,20.84
2019-06-08T18:52:20.067Z,20.82
2019-06-08T18:54:50.022Z,20.82
2019-06-08T18:57:19.962Z,20.80
2019-06-08T18:59:52.986Z,20.75
2019-06-08T19:02:21.372Z,20.72
2019-06-08T19:04:51.199Z,20.67
2019-06-08T19:07:28.455Z,20.67
2019-06-08T19:10:01.681Z,20.56
2019-06-08T19:12:31.506Z,20.52
2019-06-08T19:15:01.338Z,20.51
2019-06-08T19:17:31.344Z,20.47
2019-06-08T19:20:01.259Z,20.42
2019-06-08T19:22:31.266Z,20.39
2019-06-08T19:25:02.050Z,20.33
2019-06-08T19:27:32.733Z,20.30
2019-06-08T19:30:02.748Z,20.26
2019-06-08T19:32:32.645Z,20.20
2019-06-08T19:35:04.137Z,20.08
2019-06-08T19:37:34.306Z,19.97
2019-06-08T19:40:07.458Z,19.87
2019-06-08T19:42:45.585Z,19.84
2019-06-08T19:45:10.065Z,19.74
2019-06-08T19:47:40.511Z,19.63
2019-06-08T19:50:11.178Z,19.50
2019-06-08T19:52:43.759Z,19.44
2019-06-08T19:55:12.763Z,18.73
2019-06-08T19:57:43.577Z,19.21
2019-06-08T20:00:13.853Z,19.13
2019-06-08T20:02:44.727Z,19.08
2019-06-08T20:05:17.483Z,18.99
2019-06-08T20:07:47.593Z,18.95
2019-06-08T20:10:19.211Z,18.94
2019-06-08T20:12:50.916Z,18.93
2019-06-08T20:15:20.711Z,18.93
2019-06-08T20:17:51.607Z,18.92
2019-06-08T20:20:22.125Z,18.89
2019-06-08T20:22:53.569Z,18.87
2019-06-08T20:25:24.116Z,18.79
2019-06-08T20:27:53.848Z,18.70
2019-06-08T20:30:24.483Z,18.64
2019-06-08T20:32:57.594Z,18.54
2019-06-08T20:35:28.164Z,18.43
2019-06-08T20:37:58.313Z,18.31
2019-06-08T20:40:28.254Z,18.24
2019-06-08T20:42:58.205Z,18.19
2019-06-08T20:45:29.139Z,18.14
2019-06-08T20:47:58.975Z,18.07
2019-06-08T20:50:28.660Z,17.89
2019-06-08T20:52:58.676Z,17.85
2019-06-08T20:55:28.948Z,17.77
2019-06-08T20:58:02.348Z,17.61
2019-06-08T21:00:32.188Z,17.43
2019-06-08T21:03:03.167Z,17.37
2019-06-08T21:05:33.194Z,17.29
2019-06-08T21:08:03.045Z,17.14
2019-06-08T21:10:32.997Z,17.04
2019-06-08T21:13:03.044Z,16.92
2019-06-08T21:15:32.759Z,16.89
2019-06-08T21:18:02.606Z,16.80
2019-06-08T21:20:34.079Z,16.76
2019-06-08T21:23:04.025Z,16.72
2019-06-08T21:25:33.828Z,16.80
2019-06-08T21:28:03.863Z,16.85
2019-06-08T21:30:37.776Z,16.91
2019-06-08T21:33:08.446Z,16.91
2019-06-08T21:35:40.346Z,16.68
2019-06-08T21:38:22.708Z,16.69
2019-06-08T21:40:41.897Z,16.62
2019-06-08T21:43:12.034Z,16.37
2019-06-08T21:45:42.075Z,16.23
2019-06-08T21:48:11.806Z,16.30
2019-06-08T21:50:41.880Z,16.38
2019-06-08T21:53:11.697Z,16.43
2019-06-08T21:55:42.178Z,16.36
2019-06-08T21:58:12.026Z,16.16
2019-06-08T22:00:43.570Z,16.21
2019-06-08T22:03:13.492Z,16.22
2019-06-08T22:05:43.341Z,16.14
2019-06-08T22:08:14.043Z,16.17
2019-06-08T22:10:44.326Z,16.15
2019-06-08T22:13:14.298Z,16.15
2019-06-08T22:15:44.566Z,16.09
2019-06-08T22:18:14.686Z,16.13
2019-06-08T22:20:44.828Z,16.12
2019-06-08T22:23:14.637Z,16.09
2019-06-08T22:25:47.830Z,16.08
2019-06-08T22:28:17.833Z,16.05
2019-06-08T22:30:49.196Z,15.90
2019-06-08T22:33:19.043Z,15.79
2019-06-08T22:35:48.993Z,15.69
2019-06-08T22:38:19.140Z,15.70
2019-06-08T22:40:50.077Z,15.65
2019-06-08T22:43:21.929Z,15.67
2019-06-08T22:45:52.817Z,15.68
2019-06-08T22:48:22.930Z,15.72
2019-06-08T22:50:53.781Z,15.73
2019-06-08T22:53:24.456Z,15.79
2019-06-08T22:55:55.397Z,15.74
2019-06-08T22:58:27.672Z,15.69
2019-06-08T23:01:02.500Z,15.72
2019-06-08T23:03:29.243Z,15.73
2019-06-08T23:06:02.212Z,15.74
2019-06-08T23:08:30.970Z,15.71
2019-06-08T23:11:02.144Z,15.77
2019-06-08T23:13:32.407Z,15.71
2019-06-08T23:16:02.907Z,15.73
2019-06-08T23:18:33.754Z,15.77
2019-06-08T23:21:04.257Z,15.68
2019-06-08T23:23:34.809Z,15.66
2019-06-08T23:26:06.184Z,15.58
2019-06-08T23:28:37.680Z,15.60
2019-06-08T23:31:19.773Z,15.66
2019-06-08T23:33:39.247Z,15.73
2019-06-08T23:38:43.406Z,15.66
2019-06-08T23:41:13.381Z,15.61
2019-06-08T23:43:43.525Z,15.62
2019-06-08T23:46:13.419Z,15.63
2019-06-08T23:48:43.256Z,15.54
2019-06-08T23:51:14.705Z,15.61
2019-06-08T23:53:44.513Z,15.66
2019-06-08T23:56:14.341Z,15.69
2019-06-08T23:58:48.210Z,15.64
